NCAR-RAP Real-Time Weather Data

Output produced by METARs form (23 July 2019  23:02 UTC)
found at http://weather.rap.ucar.edu/surface/
 
KCAO 232255Z AUTO 16012G21KT 10SM FEW050 SCT075 28/14 A3027 RMK AO2 SLP187 T02780139
KCAO 232155Z AUTO 16017G25KT 10SM BKN060 27/13 A3029 RMK AO2 SLP191 T02720133
KCAO 232055Z AUTO 21014G19KT 10SM BKN065 BKN080 28/13 A3030 RMK AO2 SLP192 T02830128 58022
KCAO 231955Z AUTO 20011G19KT 10SM SCT055 27/13 A3033 RMK AO2 SLP206 T02670133
KCAO 231855Z AUTO 19008KT 10SM BKN046 BKN055 26/13 A3035 RMK AO2 SLP215 T02560133
KCAO 231755Z AUTO 21011KT 10SM OVC043 25/14 A3038 RMK AO2 SLP222 T02500139 10256 20172 58013
KCAO 231655Z AUTO 18012G19KT 10SM BKN041 24/14 A3040 RMK AO2 PK WND 18028/1619 SLP231 T02440139
KCAO 231555Z AUTO 18014KT 10SM FEW033 23/13 A3041 RMK AO2 SLP237 T02330133
KCAO 231455Z AUTO 20012KT 10SM SCT042 22/13 A3042 RMK AO2 SLP242 T02170128 50004
KCAO 231355Z AUTO 19011KT 10SM OVC042 19/13 A3042 RMK AO2 SLP247 T01890133
KCAO 231255Z AUTO 19006KT 10SM OVC042 17/13 A3041 RMK AO2 SLP242 T01720133
KCAO 231155Z AUTO 19007KT 10SM OVC038 17/13 A3040 RMK AO2 SLP239 T01720133 10189 20161 53002
KCAO 231055Z AUTO 18006KT 10SM OVC045 17/14 A3040 RMK AO2 SLP235 T01670139
KCAO 230955Z AUTO 16005KT 10SM FEW050 17/14 A3039 RMK AO2 SLP233 T01670139
KCAO 230855Z AUTO 14006KT 10SM BKN060 18/14 A3040 RMK AO2 SLP230 T01780144 58006
KCAO 230755Z AUTO 13005KT 10SM FEW055 18/15 A3041 RMK AO2 SLP233 T01830150
KCAO 230655Z AUTO 16005KT 10SM OVC055 19/15 A3041 RMK AO2 SLP234 T01890150 402720156
KCAO 230555Z AUTO 15006KT 10SM BKN049 BKN055 OVC070 19/16 A3042 RMK AO2 SLP237 T01890156 10239 20183 50007
KCAO 230455Z AUTO 15005KT 10SM SCT049 BKN065 18/16 A3042 RMK AO2 SLP245 T01830156
KCAO 230355Z AUTO 13006KT 10SM SCT041 18/15 A3041 RMK AO2 SLP248 T01830150